^^
Station Historical Data
 
Daily Summary for December 09, 2019 Units:  English    Metric   Both
Next Day »
Daily Weekly Monthly Yearly Custom
  Current: High: Low: Average:
Temperature: 53.1 °F 58.8 °F 52.7 °F 54.3 °F
Dew Point: 50.2 °F 52.5 °F 49.3 °F 51.3 °F
Humidity: 90% 93% 76% 90%
Wind Speed: 2.3mph 10.4mph 0mph 1.4mph
Wind Gust: 0.5mph 9mph - -
WindWSW - - SSE
Pressure: 29.9 in 29.9 in 29.8 in -
Precipitation: 0.59 in      
Historical Graphs
 
 
Tabular Data for December 09, 2019
Time Temperature Dew Point Pressure Wind Wind Speed Wind Gust Humidity Rainfall Rate (Hourly) solar Conditions
00:00 58.8 °F 51.3 °F 29.9 in NNW 2.3 mph 0.3 mph 76% 0 in 0.00 W/m2 CLR
00:05 58.6 °F 52 °F 29.9 in NNW 1 mph 3 mph 78% 0 in 0.00 W/m2 CLR
00:10 58.6 °F 52.2 °F 29.9 in NNE 5 mph 1.7 mph 79% 0 in 0.00 W/m2 CLR
00:15 58.5 °F 52 °F 29.9 in Calm   5 mph 79% 0 in 0.00 W/m2 CLR
00:20 58.5 °F 51.6 °F 29.9 in North 3.5 mph 1.8 mph 78% 0 in 0.00 W/m2 CLR
00:25 58.3 °F 51.4 °F 29.9 in North 1 mph 4 mph 78% 0 in 0.00 W/m2 CLR
00:30 58.3 °F 51.4 °F 29.9 in North 4.6 mph 2.1 mph 78% 0 in 0.00 W/m2 CLR
00:35 58.3 °F 51.4 °F 29.9 in North 2 mph 5 mph 78% 0 in 0.00 W/m2 CLR
00:40 58.3 °F 51.6 °F 29.9 in NNE 3.5 mph 2.1 mph 79% 0 in 0.00 W/m2 CLR
00:45 58.1 °F 51.6 °F 29.9 in NNE 1 mph 4 mph 79% 0 in 0.00 W/m2 CLR
00:50 57.9 °F 51.4 °F 29.9 in NNE 3.5 mph 2.7 mph 79% 0 in 0.00 W/m2 CLR
00:55 57.7 °F 51.6 °F 29.9 in NNE 1 mph 3 mph 80% 0 in 0.00 W/m2 CLR
01:00 57.7 °F 52 °F 29.9 in WSW 10.4 mph 5.3 mph 81% 0.02 in 0.00 W/m2 RA
01:05 57.4 °F 51.6 °F 29.9 in Calm   6 mph 81% 0.02 in 0.00 W/m2 RA
01:10 57 °F 51.6 °F 29.9 in SW 1.2 mph   82% 0.11 in 0.00 W/m2 RA
01:15 56.7 °F 51.6 °F 29.9 in West 1 mph 3 mph 83% 0 in 0.00 W/m2 RA
01:20 56.1 °F 51.4 °F 29.9 in NNE 3.5 mph 1.7 mph 84% 0.17 in 0.00 W/m2 RA
01:25 55.8 °F 51.3 °F 29.9 in NNE 2 mph 4 mph 85% 0.03 in 0.00 W/m2 RA
01:30 55 °F 51.1 °F 29.9 in NE 2.3 mph 1.5 mph 86% 0.19 in 0.00 W/m2 RA
01:35 54.9 °F 51.1 °F 29.9 in NE 2 mph 6 mph 87% 0.01 in 0.00 W/m2 RA
01:40 54.7 °F 51.3 °F 29.9 in ENE 5 mph 1.4 mph 88% 0.19 in 0.00 W/m2
01:45 54.7 °F 51.1 °F 29.9 in NE 2 mph 8 mph 88% 0 in 0.00 W/m2
01:50 54.5 °F 51.3 °F 29.9 in NNE 4.6 mph 2.1 mph 89% 0.19 in 0.00 W/m2
01:55 54.3 °F 50.9 °F 29.9 in NNE 1 mph 7 mph 88% 0 in 0.00 W/m2
02:00 54.1 °F 51.1 °F 29.9 in NNE 3.5 mph 2.1 mph 89% 0.17 in 0.00 W/m2
02:05 54.1 °F 50.9 °F 29.9 in North 2 mph 7 mph 89% 0 in 0.00 W/m2 RA
02:10 54.1 °F 50.9 °F 29.9 in North 3.5 mph 2.3 mph 89% 0.1 in 0.00 W/m2 RA
02:15 54.1 °F 50.9 °F 29.9 in North 1 mph 6 mph 89% 0 in 0.00 W/m2 RA
02:20 54.1 °F 51.1 °F 29.9 in NNE 2.3 mph 0.7 mph 89% 0.05 in 0.00 W/m2 RA
02:25 54.1 °F 51.1 °F 29.9 in Calm   2 mph 89% 0 in 0.00 W/m2
02:30 54.1 °F 51.1 °F 29.9 in Calm     89% 0.03 in 0.00 W/m2
02:35 54.1 °F 51.1 °F 29.9 in Calm     89% 0 in 0.00 W/m2
02:40 54.1 °F 51.1 °F 29.9 in SW 2.3 mph 0.3 mph 89% 0.03 in 0.00 W/m2
02:45 54.1 °F 51.3 °F 29.9 in Calm   2 mph 90% 0.01 in 0.00 W/m2 RA
02:50 54.3 °F 51.4 °F 29.9 in SSW 1.2 mph 0.1 mph 90% 0.04 in 0.00 W/m2 RA
02:55 54.3 °F 51.4 °F 29.9 in Calm   1 mph 90% 0 in 0.00 W/m2
03:00 54.3 °F 51.4 °F 29.9 in SW 3.5 mph 1.8 mph 90% 0.04 in 0.00 W/m2
03:05 54.5 °F 51.6 °F 29.9 in Calm   3 mph 90% 0 in 0.00 W/m2 RA
03:10 54.5 °F 51.6 °F 29.9 in SW 1.2 mph 0.6 mph 90% 0.05 in 0.00 W/m2 RA
03:15 54.5 °F 52 °F 29.9 in Calm   1 mph 91% 0 in 0.00 W/m2 RA
03:20 54.5 °F 52 °F 29.9 in SW 1.2 mph   91% 0.04 in 0.00 W/m2
03:25 54.5 °F 52 °F 29.9 in Calm   1 mph 91% 0 in 0.00 W/m2
03:30 54.5 °F 52 °F 29.9 in SW 1.2 mph   91% 0.04 in 0.00 W/m2
03:35 54.3 °F 52 °F 29.9 in Calm   3 mph 91% 0 in 0.00 W/m2
03:40 54.3 °F 51.8 °F 29.9 in Calm     91% 0.04 in 0.00 W/m2
03:45 54.3 °F 51.8 °F 29.9 in Calm   1 mph 91% 0 in 0.00 W/m2
03:50 54.3 °F 51.6 °F 29.9 in ESE 1.2 mph 0.2 mph 91% 0.03 in 0.00 W/m2
03:55 54.1 °F 51.6 °F 29.9 in Calm   1 mph 91% 0 in 0.00 W/m2
04:00 54.1 °F 51.6 °F 29.9 in Calm     91% 0.03 in 0.00 W/m2
04:05 54.1 °F 51.4 °F 29.9 in Calm   1 mph 91% 0 in 0.00 W/m2
04:10 54.1 °F 51.4 °F 29.9 in Calm     91% 0 in 0.00 W/m2 CLR
04:15 54.1 °F 51.4 °F 29.9 in Calm   1 mph 91% 0 in 0.00 W/m2 CLR
04:20 54.1 °F 51.8 °F 29.9 in Calm     92% 0 in 0.00 W/m2 CLR
04:25 54 °F 51.4 °F 29.9 in Calm     91% 0 in 0.00 W/m2 CLR
04:30 54 °F 51.4 °F 29.9 in Calm     91% 0 in 0.00 W/m2 CLR
04:35 54 °F 51.4 °F 29.9 in Calm     91% 0 in 0.00 W/m2 CLR
04:40 54 °F 51.3 °F 29.9 in Calm     91% 0 in 0.00 W/m2 CLR
04:45 54 °F 51.6 °F 29.9 in Calm     92% 0 in 0.00 W/m2 CLR
04:50 54 °F 51.6 °F 29.8 in Calm     92% 0 in 0.00 W/m2 CLR
04:55 54 °F 51.6 °F 29.8 in Calm   1 mph 92% 0 in 0.00 W/m2 CLR
05:00 53.8 °F 51.4 °F 29.9 in ESE 2.3 mph 0.6 mph 92% 0 in 0.00 W/m2 CLR
05:05 53.8 °F 51.4 °F 29.9 in Calm   1 mph 92% 0 in 0.00 W/m2 CLR
05:10 53.8 °F 51.4 °F 29.8 in ESE 1.2 mph 0.1 mph 92% 0 in 0.00 W/m2 CLR
05:15 53.8 °F 51.4 °F 29.8 in Calm   1 mph 92% 0 in 0.00 W/m2 CLR
05:20 53.8 °F 51.4 °F 29.8 in ESE 1.2 mph 0.4 mph 92% 0 in 0.00 W/m2 CLR
05:25 53.8 °F 51.4 °F 29.8 in Calm   2 mph 92% 0 in 0.00 W/m2 CLR
05:30 53.8 °F 51.4 °F 29.8 in ENE 1.2 mph 0.1 mph 92% 0.01 in 0.00 W/m2 RA
05:35 53.8 °F 51.4 °F 29.9 in Calm   2 mph 92% 0.01 in 0.00 W/m2 RA
05:40 53.8 °F 51.4 °F 29.9 in East 1.2 mph 0.2 mph 92% 0.07 in 0.00 W/m2 RA
05:45 53.8 °F 51.4 °F 29.9 in SSE 1 mph 4 mph 92% 0 in 0.00 W/m2 RA
05:50 53.8 °F 51.4 °F 29.9 in West 2.3 mph 0.6 mph 92% 0.15 in 0.00 W/m2 RA
05:55 53.8 °F 51.4 °F 29.9 in Calm   1 mph 92% 0.08 in 0.00 W/m2 RA
06:00 53.8 °F 51.4 °F 29.9 in Calm     92% 0.19 in 0.00 W/m2 RA
06:05 54 °F 51.6 °F 29.9 in WSW 1 mph 3 mph 92% 0 in 0.00 W/m2 RA
06:10 53.8 °F 51.4 °F 29.9 in ENE 8.1 mph 4.7 mph 92% 0.21 in 0.00 W/m2 RA
06:15 53.4 °F 51.3 °F 29.9 in NE 3.5 mph 0.9 mph 92% 0.21 in 0.00 W/m2 RA
06:20 53.4 °F 51.1 °F 29.9 in ESE 1.2 mph 0.1 mph 92% 0.21 in 0.00 W/m2
06:25 53.2 °F 51.1 °F 29.9 in SE 2 mph 5 mph 92% 0 in 0.00 W/m2
06:30 53.2 °F 51.1 °F 29.9 in WSW 1.2 mph   92% 0.2 in 0.00 W/m2
06:35 53.2 °F 51.1 °F 29.9 in Calm     92% 0 in 0.00 W/m2
06:40 53.2 °F 51.1 °F 29.9 in Calm     92% 0.14 in 0.00 W/m2
06:45 53.2 °F 51.1 °F 29.9 in Calm   1 mph 92% 0 in 0.00 W/m2
06:50 53.1 °F 50.7 °F 29.9 in Calm     92% 0.06 in 0.00 W/m2
06:55 53.1 °F 50.7 °F 29.9 in Calm     92% 0 in 0.00 W/m2
07:00 53.1 °F 50.7 °F 29.9 in Calm     92% 0.02 in 0.00 W/m2
07:05 53.1 °F 50.7 °F 29.9 in Calm     92% 0 in 0.00 W/m2 OVC
07:10 52.9 °F 50.5 °F 29.9 in Calm     92% 0 in 0.00 W/m2
07:15 52.9 °F 50.5 °F 29.9 in Calm     92% 0 in 0.00 W/m2 OVC
07:20 52.9 °F 50.5 °F 29.9 in Calm     92% 0 in 0.00 W/m2 CLR
07:25 52.9 °F 50.5 °F 29.9 in Calm   1 mph 92% 0 in 0.00 W/m2 OVC
07:30 52.9 °F 50.7 °F 29.9 in Calm     93% 0 in 0.00 W/m2 CLR
07:35 52.9 °F 50.5 °F 29.9 in Calm     92% 0 in 0.00 W/m2 OVC
07:40 52.9 °F 50.7 °F 29.9 in Calm     93% 0 in 5.00 W/m2 BKN
07:45 52.9 °F 50.7 °F 29.9 in Calm     93% 0 in 5.00 W/m2 OVC
07:50 52.9 °F 50.9 °F 29.9 in Calm     93% 0 in 9.00 W/m2 BKN
07:55 52.9 °F 50.9 °F 29.9 in Calm   2 mph 93% 0 in 11.00 W/m2 OVC
08:00 53.1 °F 51.1 °F 29.9 in East 1.2 mph 0.5 mph 93% 0 in 14.00 W/m2 BKN
08:05 53.1 °F 51.1 °F 29.9 in Calm   3 mph 93% 0 in 44.00 W/m2 BKN
08:10 53.1 °F 51.1 °F 29.9 in East 1.2 mph 0.2 mph 93% 0 in 67.00 W/m2 SCT
08:15 53.2 °F 51.3 °F 29.9 in Calm   3 mph 93% 0 in 174.00 W/m2 CLR
08:20 53.2 °F 51.3 °F 29.9 in ENE 2.3 mph 0.6 mph 93% 0 in 204.00 W/m2 CLR
08:25 53.6 °F 51.6 °F 29.9 in Calm   2 mph 93% 0 in 202.00 W/m2 CLR
08:30 54 °F 52 °F 29.9 in ESE 2.3 mph 0.6 mph 93% 0 in 142.00 W/m2 FEW
08:35 54.1 °F 52.2 °F 29.9 in Calm   3 mph 93% 0 in 67.00 W/m2 OVC
08:40 54.1 °F 52.2 °F 29.9 in South 1.2 mph 0.2 mph 93% 0 in 72.00 W/m2 BKN
08:45 54.1 °F 52.2 °F 29.9 in Calm   2 mph 93% 0 in 74.00 W/m2 OVC
08:50 54.1 °F 52.2 °F 29.9 in Calm     93% 0 in 86.00 W/m2 SCT
08:55 54.1 °F 52.2 °F 29.9 in Calm   5 mph 93% 0 in 88.00 W/m2 OVC
09:00 54.1 °F 52.2 °F 29.9 in SSE 3.5 mph 2 mph 93% 0 in 100.00 W/m2 SCT
09:05 54.1 °F 52.2 °F 29.9 in Calm   3 mph 93% 0 in 109.00 W/m2 BKN
09:10 54.3 °F 52.3 °F 29.9 in ENE 3.5 mph 1.3 mph 93% 0 in 111.00 W/m2 SCT
09:15 54.3 °F 52 °F 29.9 in ESE 2 mph 6 mph 92% 0 in 111.00 W/m2 BKN
09:20 54.3 °F 52 °F 29.9 in South 2.3 mph 0.9 mph 92% 0 in 113.00 W/m2 BKN
09:25 54.1 °F 52 °F 29.9 in Calm   4 mph 92% 0 in 113.00 W/m2 OVC
09:30 54.3 °F 52 °F 29.9 in South 3.5 mph 1.4 mph 92% 0 in 102.00 W/m2 BKN
09:35 54.3 °F 52.2 °F 29.9 in ESE 1 mph 6 mph 92% 0 in 102.00 W/m2 OVC
09:40 54.3 °F 52.2 °F 29.9 in SE 3.5 mph 1.5 mph 92% 0 in 113.00 W/m2 BKN
09:45 54.5 °F 52 °F 29.9 in SE 1 mph 6 mph 91% 0 in 151.00 W/m2 BKN
09:50 54.7 °F 52 °F 29.9 in South 3.5 mph 1.3 mph 91% 0 in 130.00 W/m2 BKN
09:55 54.9 °F 52.2 °F 29.9 in SSE 1 mph 5 mph 91% 0 in 102.00 W/m2 OVC
10:00 54.9 °F 52.3 °F 29.9 in SSE 3 mph 1.5 mph 91% 0 in 91.00 W/m2 BKN
10:05 55 °F 52.3 °F 29.9 in Calm   5 mph 91% 0 in 91.00 W/m2 OVC
10:10 55 °F 52.5 °F 29.9 in SE 4.6 mph 1.7 mph 91% 0 in 90.00 W/m2 BKN
10:15 55 °F 52.3 °F 29.9 in SSW 1 mph 3 mph 90% 0 in 111.00 W/m2 OVC
10:20 55.2 °F 52.3 °F 29.9 in SSW 2.3 mph 0.4 mph 90% 0 in 84.00 W/m2 BKN
10:25 55.4 °F 52.2 °F 29.9 in Calm   4 mph 89% 0 in 77.00 W/m2 OVC
10:30 55.6 °F 52.3 °F 29.9 in SW 3.5 mph 2 mph 89% 0 in 70.00 W/m2 BKN
10:35 55.8 °F 52.5 °F 29.9 in SW 6 mph 9 mph 89% 0 in 35.00 W/m2 OVC
10:40 55.2 °F 51.4 °F 29.9 in SW 6 mph 1.7 mph 87% 0 in 56.00 W/m2 BKN
10:45 54.7 °F 50.9 °F 29.9 in WNW 2 mph 6 mph 87% 0 in 28.00 W/m2 OVC
10:50 54.3 °F 50.5 °F 29.9 in SSW 3.5 mph 1.9 mph 87% 0 in 25.00 W/m2 OVC
10:55 54.1 °F 50.4 °F 29.9 in WNW 1 mph 8 mph 87% 0.01 in 25.00 W/m2 RA
11:00 53.8 °F 50.2 °F 29.9 in WSW 6 mph 2.5 mph 88% 0.08 in 33.00 W/m2 RA
11:05 53.4 °F 49.8 °F 29.9 in West 1 mph 6 mph 88% 0 in 47.00 W/m2 RA
11:10 53.1 °F 49.6 °F 29.9 in North 3.5 mph 2.4 mph 88% 0.12 in 79.00 W/m2 RA
11:15 52.9 °F 49.5 °F 29.9 in NNW 2 mph 5 mph 88% 0.01 in 107.00 W/m2 RA
11:20 52.7 °F 49.3 °F 29.9 in NW 3.5 mph 1.8 mph 88% 0.12 in 95.00 W/m2 BKN
11:25 52.7 °F 49.5 °F 29.9 in NNW 1 mph 6 mph 89% 0 in 81.00 W/m2 OVC
11:30 52.7 °F 49.5 °F 29.9 in NW 2.3 mph 0.7 mph 89% 0.12 in 72.00 W/m2 BKN
11:35 52.7 °F 49.5 °F 29.9 in Calm   3 mph 89% 0 in 97.00 W/m2 OVC
11:40 52.9 °F 49.6 °F 29.9 in Calm     89% 0.12 in 88.00 W/m2 BKN
11:45 52.9 °F 49.6 °F 29.9 in Calm     89% 0 in 86.00 W/m2 OVC
11:50 53.1 °F 50.2 °F 29.9 in WSW 2.3 mph 0.5 mph 90% 0.12 in 107.00 W/m2 BKN
Countryside Manor, Tucson, AZ, USA